Time;durP1;ratioP1;P1;durP2;ratioP2;P2;SDS_P1;SDS_P2;PMS_P1;PMS_P2;Temp;Humidity;BMP_temperature;BMP_pressure;BME280_temperature;BME280_humidity;BME280_pressure;Samples;Min_cycle;Max_cycle;Signal;HPM_P1;HPM_P2
2022/05/26 00:00:35;;;;;;;47.80;8.02;;;15.10;99.90;;;;;;5011123;28;20561;-74
2022/05/26 00:03:01;;;;;;;43.60;8.02;;;15.10;99.90;;;;;;5011657;28;20367;-74
2022/05/26 00:05:27;;;;;;;43.70;8.10;;;15.10;99.90;;;;;;5011010;28;20037;-75
2022/05/26 00:07:53;;;;;;;43.08;7.68;;;15.10;99.90;;;;;;5011407;28;20026;-75
2022/05/26 00:10:19;;;;;;;49.47;8.35;;;15.10;99.90;;;;;;5010763;28;20021;-74
2022/05/26 00:12:45;;;;;;;44.22;8.27;;;15.10;99.90;;;;;;5011025;28;20084;-74
2022/05/26 00:15:11;;;;;;;34.63;7.38;;;15.10;99.90;;;;;;5011389;28;20049;-75
2022/05/26 00:17:37;;;;;;;40.45;7.40;;;15.10;99.90;;;;;;5029206;28;20556;-74
2022/05/26 00:20:04;;;;;;;47.83;7.68;;;15.10;99.90;;;;;;5024772;28;20018;-74
2022/05/26 00:22:30;;;;;;;40.13;7.30;;;15.10;99.90;;;;;;5030382;28;20025;-74
2022/05/26 00:24:55;;;;;;;51.88;8.40;;;15.10;99.90;;;;;;5030506;28;20034;-75
2022/05/26 00:27:21;;;;;;;44.25;7.35;;;15.10;99.90;;;;;;5014107;28;20030;-74
2022/05/26 00:29:47;;;;;;;43.80;7.78;;;15.20;99.90;;;;;;5010668;28;20026;-75
2022/05/26 00:32:12;;;;;;;42.45;7.32;;;15.10;99.90;;;;;;5010605;28;20056;-74
2022/05/26 00:34:38;;;;;;;38.42;7.35;;;15.10;99.90;;;;;;5021742;28;20026;-74
2022/05/26 00:37:08;;;;;;;46.05;7.10;;;15.10;99.90;;;;;;5030526;28;20101;-74
2022/05/26 00:39:34;;;;;;;46.83;7.35;;;15.10;99.90;;;;;;5025826;28;20025;-74
2022/05/26 00:42:01;;;;;;;51.13;7.30;;;15.10;99.90;;;;;;5025566;28;20030;-75
2022/05/26 00:44:28;;;;;;;49.10;7.75;;;15.20;99.90;;;;;;5019016;28;20048;-74
2022/05/26 00:46:59;;;;;;;38.22;7.20;;;15.10;99.90;;;;;;5021084;28;20113;-74
2022/05/26 00:49:31;;;;;;;46.17;7.80;;;15.10;99.90;;;;;;5010802;28;20022;-74
2022/05/26 00:51:56;;;;;;;39.03;7.57;;;15.10;99.90;;;;;;5010141;28;20109;-74
2022/05/26 00:54:25;;;;;;;47.03;7.70;;;15.10;99.90;;;;;;5027802;28;20096;-74
2022/05/26 00:57:00;;;;;;;41.80;7.18;;;15.10;99.90;;;;;;5018367;28;20449;-75
2022/05/26 00:59:40;;;;;;;43.08;7.43;;;15.10;99.90;;;;;;5010393;28;20052;-75
2022/05/26 01:02:06;;;;;;;44.45;7.93;;;15.10;99.90;;;;;;5010491;28;20049;-74
2022/05/26 01:04:39;;;;;;;42.83;7.18;;;15.10;99.90;;;;;;5019653;28;20040;-74
2022/05/26 01:07:14;;;;;;;36.28;7.10;;;15.10;99.90;;;;;;5019104;28;20132;-75
2022/05/26 01:09:39;;;;;;;42.88;7.68;;;15.10;99.90;;;;;;5010608;28;20045;-75
2022/05/26 01:12:06;;;;;;;40.45;6.28;;;15.10;99.90;;;;;;5010308;28;20034;-73
2022/05/26 01:14:38;;;;;;;40.03;7.15;;;15.10;99.90;;;;;;5018441;28;20030;-74
2022/05/26 01:17:24;;;;;;;39.67;6.32;;;15.10;99.90;;;;;;5020780;28;20042;-75
2022/05/26 01:20:09;;;;;;;36.53;6.63;;;15.10;99.90;;;;;;5012162;28;20033;-74
2022/05/26 01:23:12;;;;;;;32.75;6.22;;;15.10;99.90;;;;;;5010897;28;20068;-74
2022/05/26 01:25:43;;;;;;;41.53;6.63;;;15.10;99.90;;;;;;5012219;28;20125;-73
2022/05/26 01:28:43;;;;;;;38.15;5.88;;;15.10;99.90;;;;;;5023330;28;20026;-75
2022/05/26 01:31:24;;;;;;;37.42;6.40;;;15.10;99.90;;;;;;5010169;28;20053;-75
2022/05/26 01:34:03;;;;;;;33.67;5.32;;;15.10;99.90;;;;;;5010340;28;20045;-73
2022/05/26 01:36:29;;;;;;;26.92;4.50;;;15.10;99.90;;;;;;5018203;28;20482;-74
2022/05/26 01:39:10;;;;;;;33.92;5.13;;;15.10;99.90;;;;;;5023734;28;20026;-74
2022/05/26 01:42:06;;;;;;;26.52;4.38;;;15.10;99.90;;;;;;5015463;28;20024;-74
2022/05/26 01:44:40;;;;;;;21.92;4.80;;;15.20;99.90;;;;;;5010582;28;20042;-74
2022/05/26 01:47:18;;;;;;;24.38;4.78;;;15.10;99.90;;;;;;5016430;28;20038;-74
2022/05/26 01:49:51;;;;;;;15.73;4.10;;;15.20;99.90;;;;;;5010877;28;20034;-74
2022/05/26 01:52:29;;;;;;;19.58;3.58;;;15.20;99.90;;;;;;5017112;28;20040;-74
2022/05/26 01:54:58;;;;;;;21.75;3.63;;;15.20;99.90;;;;;;5014193;28;20026;-74
2022/05/26 01:57:50;;;;;;;18.33;3.33;;;15.20;99.90;;;;;;5031327;28;20101;-74
2022/05/26 02:00:18;;;;;;;18.00;3.25;;;15.20;99.90;;;;;;5017401;28;20037;-74
2022/05/26 02:03:11;;;;;;;15.95;3.00;;;15.20;99.90;;;;;;5013277;28;20057;-75
2022/05/26 02:05:50;;;;;;;14.68;3.25;;;15.20;99.90;;;;;;5030001;28;20025;-74
2022/05/26 02:08:29;;;;;;;17.25;3.05;;;15.20;99.90;;;;;;5025544;28;20470;-74
2022/05/26 02:11:06;;;;;;;17.02;3.53;;;15.20;99.90;;;;;;5013576;28;20382;-73
2022/05/26 02:13:42;;;;;;;18.35;3.22;;;15.30;99.90;;;;;;5013508;28;20084;-74
2022/05/26 02:16:22;;;;;;;14.30;3.35;;;15.20;99.90;;;;;;5020060;28;20037;-74
2022/05/26 02:19:01;;;;;;;14.25;3.15;;;15.30;99.90;;;;;;5014928;28;20022;-74
2022/05/26 02:21:38;;;;;;;19.52;3.40;;;15.20;99.90;;;;;;5022912;28;20542;-74
2022/05/26 02:24:15;;;;;;;14.93;3.30;;;15.20;99.90;;;;;;5013400;28;20018;-74
2022/05/26 02:26:40;;;;;;;16.73;3.53;;;15.20;99.90;;;;;;5013206;28;20452;-74
2022/05/26 02:31:52;;;;;;;18.83;3.45;;;15.20;99.90;;;;;;5029677;28;20080;-74
2022/05/26 02:34:20;;;;;;;16.73;3.88;;;15.10;99.90;;;;;;5026481;28;20477;-74
2022/05/26 02:36:50;;;;;;;17.88;3.60;;;15.10;99.90;;;;;;5012905;28;20036;-74
2022/05/26 02:39:15;;;;;;;19.50;3.90;;;15.10;99.90;;;;;;5012349;28;20109;-74
2022/05/26 02:41:41;;;;;;;19.75;3.92;;;15.10;99.90;;;;;;5013188;28;20125;-74
2022/05/26 02:44:08;;;;;;;18.85;4.13;;;15.10;99.90;;;;;;5018650;28;20025;-74
2022/05/26 02:46:46;;;;;;;16.17;3.35;;;15.00;99.90;;;;;;5018437;28;20045;-74
2022/05/26 02:49:25;;;;;;;18.77;3.83;;;15.00;99.90;;;;;;5017896;28;20029;-74
2022/05/26 02:51:58;;;;;;;18.23;3.72;;;15.00;99.90;;;;;;5012318;28;20056;-74
2022/05/26 02:54:43;;;;;;;14.85;3.30;;;15.00;99.90;;;;;;5012382;28;20056;-74
2022/05/26 02:57:21;;;;;;;22.65;4.05;;;15.00;99.90;;;;;;5012557;28;20032;-74
2022/05/26 02:59:50;;;;;;;22.75;3.63;;;15.00;99.90;;;;;;5012650;28;20037;-75
2022/05/26 03:02:55;;;;;;;18.80;3.83;;;14.90;99.90;;;;;;5012557;28;20116;-73
2022/05/26 03:05:44;;;;;;;19.65;4.43;;;14.90;99.90;;;;;;5015351;28;20489;-74
2022/05/26 03:08:15;;;;;;;28.10;3.97;;;14.90;99.90;;;;;;5011899;28;20046;-74
2022/05/26 03:10:47;;;;;;;17.38;3.55;;;14.90;99.90;;;;;;5012567;28;20026;-74
2022/05/26 03:13:13;;;;;;;19.35;3.78;;;14.80;99.90;;;;;;5016140;28;20034;-74
2022/05/26 03:15:40;;;;;;;22.75;4.53;;;14.80;99.90;;;;;;5016867;28;20032;-74
2022/05/26 03:18:06;;;;;;;19.10;4.00;;;14.80;99.90;;;;;;5032151;28;20499;-74
2022/05/26 03:20:32;;;;;;;17.33;3.80;;;14.80;99.90;;;;;;5029996;28;20117;-74
2022/05/26 03:22:57;;;;;;;20.35;3.80;;;14.80;99.90;;;;;;5032003;28;20151;-74
2022/05/26 03:25:23;;;;;;;18.70;3.72;;;14.80;99.90;;;;;;5030494;28;20041;-74
2022/05/26 03:27:48;;;;;;;21.48;4.03;;;14.80;99.90;;;;;;5031781;28;20021;-75
2022/05/26 03:30:14;;;;;;;21.55;3.67;;;14.80;99.90;;;;;;5029757;28;20029;-75
2022/05/26 03:32:41;;;;;;;17.67;3.90;;;14.80;99.90;;;;;;5012234;28;20074;-75
2022/05/26 03:40:55;;;;;;;16.92;3.80;;;14.80;99.90;;;;;;5011331;28;20537;-75
2022/05/26 03:43:28;;;;;;;14.70;3.67;;;14.80;99.90;;;;;;5010748;28;20060;-75
2022/05/26 03:45:54;;;;;;;13.23;3.45;;;14.80;99.90;;;;;;5013980;28;20041;-75
2022/05/26 03:48:19;;;;;;;17.80;3.58;;;14.80;99.90;;;;;;5018769;28;20022;-74
2022/05/26 03:50:45;;;;;;;14.30;3.20;;;14.80;99.90;;;;;;5011700;28;20528;-75
2022/05/26 03:53:10;;;;;;;16.98;3.78;;;14.80;99.90;;;;;;5028510;28;20469;-74
2022/05/26 03:55:36;;;;;;;23.48;4.00;;;14.80;99.90;;;;;;5016279;28;20084;-75
2022/05/26 03:58:03;;;;;;;21.42;4.10;;;14.70;99.90;;;;;;5016779;28;20110;-75
2022/05/26 04:00:30;;;;;;;19.42;3.97;;;14.70;99.90;;;;;;5015949;28;20022;-74
2022/05/26 04:02:55;;;;;;;18.83;4.28;;;14.70;99.90;;;;;;5011320;28;20022;-75
2022/05/26 04:05:21;;;;;;;19.70;4.50;;;14.70;99.90;;;;;;5011359;28;20033;-74
2022/05/26 04:07:47;;;;;;;19.40;3.95;;;14.80;99.90;;;;;;5022108;28;20089;-75
2022/05/26 04:10:13;;;;;;;21.35;3.90;;;14.80;99.90;;;;;;5011262;28;20602;-75
2022/05/26 04:12:41;;;;;;;20.42;4.00;;;14.80;99.90;;;;;;5010989;28;20474;-75
2022/05/26 04:15:08;;;;;;;16.40;3.60;;;14.80;99.90;;;;;;5011116;28;20026;-74
2022/05/26 04:17:34;;;;;;;13.13;3.30;;;14.80;99.90;;;;;;5024907;28;20053;-74
2022/05/26 04:19:59;;;;;;;17.42;3.50;;;14.70;99.90;;;;;;5022640;28;20056;-74
2022/05/26 04:22:25;;;;;;;14.80;4.13;;;14.70;99.90;;;;;;5030491;28;20021;-75
2022/05/26 04:24:54;;;;;;;16.63;3.45;;;14.70;99.90;;;;;;5021730;28;20037;-74
2022/05/26 04:27:22;;;;;;;17.67;3.88;;;14.80;99.90;;;;;;5011185;28;20164;-76
2022/05/26 04:29:48;;;;;;;19.90;3.67;;;14.80;99.90;;;;;;5011532;28;20523;-75
2022/05/26 04:32:14;;;;;;;21.45;4.30;;;14.80;99.90;;;;;;5021180;28;20120;-75
2022/05/26 04:34:40;;;;;;;15.38;3.30;;;14.70;99.90;;;;;;5030515;28;20099;-74
2022/05/26 04:37:06;;;;;;;12.82;3.70;;;14.80;99.90;;;;;;5029126;28;20021;-74
2022/05/26 04:39:32;;;;;;;21.77;3.60;;;14.80;99.90;;;;;;5010336;28;20485;-75
2022/05/26 04:42:00;;;;;;;19.25;3.38;;;14.80;99.90;;;;;;5011041;28;20498;-74
2022/05/26 04:44:31;;;;;;;22.75;3.90;;;14.80;99.90;;;;;;5008988;28;20482;-75
2022/05/26 04:46:56;;;;;;;19.40;3.80;;;14.80;99.90;;;;;;5023843;28;20025;-74
2022/05/26 04:49:22;;;;;;;17.08;3.65;;;14.80;99.90;;;;;;5014025;28;20512;-76
2022/05/26 04:51:47;;;;;;;19.63;3.88;;;14.80;99.90;;;;;;5015894;28;20025;-75
2022/05/26 04:54:13;;;;;;;15.25;3.75;;;14.80;99.90;;;;;;5030298;28;20041;-75
2022/05/26 04:56:38;;;;;;;17.48;3.33;;;14.80;99.90;;;;;;5028942;28;20080;-75
2022/05/26 04:59:08;;;;;;;19.60;3.50;;;14.80;99.90;;;;;;5029953;28;20033;-74
2022/05/26 05:01:34;;;;;;;14.60;3.67;;;14.80;99.90;;;;;;5010928;28;20045;-75
2022/05/26 05:04:00;;;;;;;20.35;4.05;;;14.70;99.90;;;;;;5010157;28;20034;-75
2022/05/26 05:06:25;;;;;;;18.20;3.75;;;14.70;99.90;;;;;;5018217;28;20029;-75
2022/05/26 05:08:51;;;;;;;19.58;3.58;;;14.70;99.90;;;;;;5010321;28;20498;-74
2022/05/26 05:11:17;;;;;;;18.98;3.72;;;14.70;99.90;;;;;;5010704;28;20034;-75
2022/05/26 05:13:44;;;;;;;22.20;4.28;;;14.70;99.90;;;;;;5010439;28;20054;-75
2022/05/26 05:16:18;;;;;;;16.08;3.35;;;14.70;99.90;;;;;;5010087;28;20029;-74
2022/05/26 05:18:45;;;;;;;17.98;3.85;;;14.70;99.90;;;;;;5010835;28;20030;-75
2022/05/26 05:21:15;;;;;;;17.60;4.00;;;14.70;99.90;;;;;;5017230;28;20049;-75
2022/05/26 05:23:44;;;;;;;19.85;3.83;;;14.70;99.90;;;;;;5015568;28;20029;-75
2022/05/26 05:26:14;;;;;;;17.95;3.92;;;14.70;99.90;;;;;;5009960;28;20048;-75
2022/05/26 05:28:44;;;;;;;16.70;3.50;;;14.70;99.90;;;;;;5013186;28;20040;-75
2022/05/26 05:31:15;;;;;;;14.65;4.00;;;14.80;99.90;;;;;;5033458;28;20121;-74
2022/05/26 05:33:55;;;;;;;17.98;3.42;;;14.80;99.90;;;;;;5015252;28;20070;-75
2022/05/26 05:36:25;;;;;;;18.85;3.67;;;14.80;99.90;;;;;;5023883;28;20420;-75
2022/05/26 05:38:52;;;;;;;15.60;3.80;;;14.80;99.90;;;;;;5030661;28;20041;-75
2022/05/26 05:41:20;;;;;;;13.73;3.80;;;14.80;99.90;;;;;;5032352;28;20439;-74
2022/05/26 05:43:45;;;;;;;17.58;3.75;;;14.90;99.90;;;;;;5025499;28;20029;-75
2022/05/26 05:46:11;;;;;;;18.90;3.88;;;14.90;99.90;;;;;;5032525;28;20025;-75
2022/05/26 05:48:37;;;;;;;14.90;3.42;;;14.90;99.90;;;;;;5030826;28;20545;-75
2022/05/26 05:51:03;;;;;;;15.35;3.67;;;14.90;99.90;;;;;;5032620;28;20112;-75
2022/05/26 05:53:29;;;;;;;15.63;3.00;;;14.90;99.90;;;;;;5029739;28;20026;-75
2022/05/26 05:55:55;;;;;;;12.23;3.33;;;15.00;99.90;;;;;;5022239;28;20418;-76
2022/05/26 05:58:20;;;;;;;17.73;4.05;;;15.00;99.90;;;;;;5027567;28;20199;-75
2022/05/26 06:00:46;;;;;;;14.38;3.50;;;15.00;99.90;;;;;;5021543;28;20616;-76
2022/05/26 06:03:12;;;;;;;16.75;3.90;;;15.00;99.90;;;;;;5018073;28;20025;-75
2022/05/26 06:05:37;;;;;;;18.45;3.33;;;15.10;99.90;;;;;;5022511;28;20037;-76
2022/05/26 06:08:04;;;;;;;16.75;3.42;;;15.10;99.90;;;;;;5025554;28;20026;-75
2022/05/26 06:10:31;;;;;;;13.85;3.10;;;15.10;99.90;;;;;;5032290;28;20057;-75
2022/05/26 06:12:57;;;;;;;13.38;2.83;;;15.20;99.90;;;;;;5028028;28;20123;-75
2022/05/26 06:15:23;;;;;;;17.73;6.07;;;15.20;99.90;;;;;;5028964;28;20030;-75
2022/05/26 06:17:49;;;;;;;15.52;4.43;;;15.30;99.90;;;;;;5026159;28;20331;-76
2022/05/26 06:20:15;;;;;;;13.82;3.33;;;15.30;99.90;;;;;;5011681;28;20021;-75
2022/05/26 06:22:42;;;;;;;13.35;3.10;;;15.30;99.90;;;;;;5025381;28;20087;-76
2022/05/26 06:25:09;;;;;;;18.63;4.20;;;15.30;99.90;;;;;;5015597;28;20113;-78
2022/05/26 06:30:21;;;;;;;12.32;3.58;;;15.40;99.90;;;;;;5023145;28;20036;-75
2022/05/26 06:38:23;;;;;;;16.65;2.95;;;15.50;99.90;;;;;;5030689;28;20071;-76
2022/05/26 06:40:49;;;;;;;14.35;2.80;;;15.50;99.90;;;;;;5024774;28;20033;-76
2022/05/26 06:43:15;;;;;;;14.02;2.83;;;15.50;99.90;;;;;;5027152;28;20026;-75
2022/05/26 06:45:42;;;;;;;15.82;3.03;;;15.60;99.90;;;;;;5028879;28;20116;-73
2022/05/26 06:48:08;;;;;;;10.57;2.75;;;15.60;99.90;;;;;;5031459;28;20026;-75
2022/05/26 06:50:34;;;;;;;12.52;2.63;;;15.70;99.90;;;;;;5014865;28;20045;-75
2022/05/26 06:52:59;;;;;;;13.48;3.30;;;15.80;99.90;;;;;;5028552;28;20067;-75
2022/05/26 06:55:25;;;;;;;14.50;2.88;;;15.80;99.90;;;;;;5035267;28;20029;-75
2022/05/26 06:57:51;;;;;;;18.27;3.20;;;15.90;99.90;;;;;;5024149;28;20037;-74
2022/05/26 07:00:18;;;;;;;11.75;2.90;;;15.90;99.90;;;;;;5011935;28;20030;-74
2022/05/26 07:02:44;;;;;;;13.82;4.90;;;16.00;99.90;;;;;;5012831;28;20451;-75
2022/05/26 07:05:11;;;;;;;12.75;2.55;;;16.10;99.90;;;;;;5012812;28;20029;-74
2022/05/26 07:07:38;;;;;;;12.25;2.67;;;16.10;99.90;;;;;;5024915;28;20072;-81
2022/05/26 07:10:04;;;;;;;14.30;2.75;;;16.20;99.90;;;;;;5032056;28;20107;-80
2022/05/26 07:12:30;;;;;;;10.02;2.50;;;16.20;99.90;;;;;;5019456;28;20057;-79
2022/05/26 07:14:56;;;;;;;13.43;2.60;;;16.30;99.90;;;;;;5032350;28;20085;-79
2022/05/26 07:17:21;;;;;;;18.38;3.30;;;16.40;99.90;;;;;;5024394;28;20030;-80
2022/05/26 07:19:47;;;;;;;15.73;3.03;;;16.40;99.90;;;;;;5030836;28;20014;-80
2022/05/26 07:22:16;;;;;;;16.00;2.70;;;16.50;99.90;;;;;;5031051;28;20121;-82
2022/05/26 07:24:42;;;;;;;17.50;3.03;;;16.70;99.90;;;;;;5029752;28;20028;-82
2022/05/26 07:27:08;;;;;;;16.65;2.85;;;16.80;99.90;;;;;;5030429;28;20026;-82
2022/05/26 07:29:34;;;;;;;11.73;3.00;;;16.90;99.90;;;;;;5027058;28;20026;-81
2022/05/26 07:32:01;;;;;;;17.05;3.00;;;17.10;99.90;;;;;;5025092;28;20049;-81
2022/05/26 07:34:27;;;;;;;12.40;3.10;;;17.20;99.90;;;;;;5026385;28;20022;-82
2022/05/26 07:42:24;;;;;;;13.35;2.90;;;17.60;99.90;;;;;;5030562;28;20048;-82
2022/05/26 07:44:53;;;;;;;16.55;2.70;;;17.70;99.90;;;;;;5024587;28;20029;-76
2022/05/26 07:47:19;;;;;;;13.13;2.58;;;17.80;99.90;;;;;;5027002;28;20036;-80
2022/05/26 07:49:47;;;;;;;8.90;2.70;;;17.80;99.90;;;;;;5027739;28;20021;-79
2022/05/26 07:52:14;;;;;;;15.15;2.95;;;17.80;99.90;;;;;;5027722;28;20018;-79
2022/05/26 07:54:41;;;;;;;11.05;2.90;;;17.70;99.90;;;;;;5020045;28;20018;-79
2022/05/26 07:57:18;;;;;;;10.95;2.53;;;17.60;99.90;;;;;;5024653;28;20022;-80
2022/05/26 07:59:43;;;;;;;12.02;2.63;;;17.60;99.90;;;;;;5026523;28;20021;-79
2022/05/26 08:02:09;;;;;;;12.80;2.50;;;17.70;99.90;;;;;;5029689;28;20020;-81
2022/05/26 08:04:34;;;;;;;9.90;2.40;;;17.70;99.90;;;;;;5038379;28;20018;-78
2022/05/26 08:07:00;;;;;;;14.32;2.90;;;17.70;99.90;;;;;;5026094;28;20041;-80
2022/05/26 08:09:25;;;;;;;9.63;2.50;;;17.70;99.90;;;;;;5017105;28;20022;-77
2022/05/26 08:11:51;;;;;;;12.15;2.92;;;17.80;99.90;;;;;;5015324;28;20520;-77
2022/05/26 08:14:17;;;;;;;11.00;2.60;;;17.80;99.90;;;;;;5026385;28;20021;-79
2022/05/26 08:16:43;;;;;;;13.95;2.67;;;17.80;99.90;;;;;;5018927;28;20068;-78
2022/05/26 08:19:09;;;;;;;15.43;2.80;;;17.70;99.90;;;;;;5023951;28;20595;-80
2022/05/26 08:21:35;;;;;;;11.77;2.83;;;17.70;99.90;;;;;;5023958;28;20025;-77
2022/05/26 08:24:02;;;;;;;10.63;2.83;;;17.70;99.90;;;;;;5024872;28;20036;-78
2022/05/26 08:26:28;;;;;;;11.52;2.60;;;17.60;99.90;;;;;;5027128;28;20030;-77
2022/05/26 08:28:55;;;;;;;14.45;2.50;;;17.70;99.90;;;;;;5027430;28;20033;-78
2022/05/26 08:31:21;;;;;;;17.27;2.58;;;17.80;99.90;;;;;;5024661;28;20037;-78
2022/05/26 08:33:46;;;;;;;13.27;2.75;;;17.90;99.90;;;;;;5028130;28;20026;-78
2022/05/26 08:36:15;;;;;;;12.93;2.75;;;18.00;99.90;;;;;;5027030;28;20108;-79
2022/05/26 08:38:41;;;;;;;11.75;2.97;;;18.10;99.90;;;;;;5026919;28;20026;-79
2022/05/26 08:41:19;;;;;;;13.15;2.92;;;18.20;99.90;;;;;;5027806;28;20053;-80
2022/05/26 08:43:58;;;;;;;15.55;3.65;;;18.40;99.90;;;;;;5034494;28;20029;-81
2022/05/26 08:46:31;;;;;;;15.95;3.42;;;18.50;99.90;;;;;;5040649;28;20029;-78
2022/05/26 08:49:08;;;;;;;10.57;2.65;;;18.40;99.90;;;;;;5034783;28;20037;-76
2022/05/26 08:52:11;;;;;;;15.68;3.60;;;18.30;99.90;;;;;;5034869;28;20025;-78
2022/05/26 08:54:39;;;;;;;14.13;3.25;;;18.20;99.90;;;;;;5023696;28;20053;-76
2022/05/26 08:57:11;;;;;;;15.25;3.65;;;18.20;99.90;;;;;;5029263;28;20018;-79
2022/05/26 08:59:41;;;;;;;14.98;3.65;;;18.20;99.90;;;;;;5029337;28;20022;-78
2022/05/26 09:02:31;;;;;;;19.83;3.60;;;18.10;99.90;;;;;;5032575;28;20030;-76
2022/05/26 09:05:17;;;;;;;12.82;2.70;;;18.30;99.90;;;;;;5025619;28;20022;-75
2022/05/26 09:13:50;;;;;;;20.15;3.17;;;18.10;99.90;;;;;;5026037;28;20101;-78
2022/05/26 09:16:16;;;;;;;14.30;2.70;;;18.30;99.90;;;;;;5018625;28;20019;-77
2022/05/26 09:18:43;;;;;;;16.95;3.10;;;18.40;99.90;;;;;;5016577;28;20022;-77
2022/05/26 09:21:36;;;;;;;11.85;2.97;;;18.50;99.90;;;;;;5032428;28;20022;-78
2022/05/26 09:24:22;;;;;;;14.57;2.80;;;18.80;99.90;;;;;;5027297;28;20120;-78
2022/05/26 09:27:02;;;;;;;13.88;2.75;;;19.00;99.90;;;;;;5031009;28;20096;-78
2022/05/26 09:29:33;;;;;;;13.35;2.50;;;19.00;99.90;;;;;;5034599;28;20029;-78
2022/05/26 09:32:01;;;;;;;12.68;2.20;;;19.00;99.90;;;;;;5018563;28;20046;-79
2022/05/26 09:34:32;;;;;;;14.00;2.75;;;19.00;99.90;;;;;;5014149;28;20022;-80
2022/05/26 09:37:04;;;;;;;10.90;2.60;;;18.90;99.90;;;;;;5024327;28;20025;-81
2022/05/26 09:39:37;;;;;;;18.80;3.22;;;18.90;99.90;;;;;;5034527;28;20460;-80
2022/05/26 09:42:16;;;;;;;11.85;2.80;;;19.00;99.90;;;;;;5015733;28;20030;-80
2022/05/26 09:44:55;;;;;;;10.15;2.70;;;19.20;99.90;;;;;;5023233;28;20029;-80
2022/05/26 09:47:36;;;;;;;9.63;2.30;;;19.30;99.90;;;;;;5020683;28;20037;-81
2022/05/26 09:50:06;;;;;;;11.60;2.35;;;19.40;99.90;;;;;;5015154;28;20114;-82
2022/05/26 09:52:59;;;;;;;10.77;2.42;;;19.50;99.90;;;;;;5014164;28;20496;-82
2022/05/26 09:55:29;;;;;;;12.90;2.63;;;19.60;99.90;;;;;;5013153;28;20057;-79
2022/05/26 09:58:08;;;;;;;12.57;2.20;;;19.60;99.90;;;;;;5033367;28;20108;-79
2022/05/26 10:00:45;;;;;;;8.00;2.08;;;19.60;99.90;;;;;;5030720;28;20054;-80
2022/05/26 10:03:36;;;;;;;20.13;2.28;;;19.50;99.90;;;;;;5021312;28;20048;-80
2022/05/26 10:06:15;;;;;;;9.93;2.20;;;19.60;99.90;;;;;;5018480;28;20033;-82
2022/05/26 10:08:56;;;;;;;12.75;2.58;;;19.60;99.90;;;;;;5025278;28;20511;-82
2022/05/26 10:11:48;;;;;;;12.82;2.28;;;19.60;99.90;;;;;;5033671;28;20037;-79
2022/05/26 10:14:32;;;;;;;17.48;2.72;;;19.70;99.90;;;;;;5035464;28;20089;-81
2022/05/26 10:17:07;;;;;;;13.45;2.72;;;19.70;99.90;;;;;;5031652;28;20039;-78
2022/05/26 10:20:00;;;;;;;16.95;3.35;;;19.70;99.90;;;;;;5047733;28;20022;-79
2022/05/26 10:22:58;;;;;;;13.65;2.50;;;19.70;99.90;;;;;;5046409;28;20045;-79
2022/05/26 10:25:30;;;;;;;17.25;2.15;;;19.60;99.90;;;;;;5042178;28;20152;-80
2022/05/26 10:28:06;;;;;;;11.23;2.65;;;19.40;99.90;;;;;;5041561;28;20037;-77
2022/05/26 10:31:08;;;;;;;11.60;2.40;;;19.40;99.90;;;;;;5045877;28;20045;-80
2022/05/26 10:33:56;;;;;;;12.10;2.92;;;19.60;99.90;;;;;;5034921;28;20037;-77
2022/05/26 10:36:34;;;;;;;9.52;2.10;;;19.70;99.90;;;;;;5025311;28;20104;-76
2022/05/26 10:39:06;;;;;;;14.98;2.25;;;19.90;99.90;;;;;;5036258;28;20385;-76
2022/05/26 10:41:45;;;;;;;11.52;2.55;;;20.10;99.90;;;;;;5034702;28;20037;-76
2022/05/26 10:44:20;;;;;;;14.45;4.55;;;20.20;99.90;;;;;;5021147;28;20028;-75
2022/05/26 10:46:54;;;;;;;10.57;2.95;;;20.20;99.90;;;;;;5016273;28;20120;-77
2022/05/26 10:49:49;;;;;;;12.55;2.30;;;20.10;99.90;;;;;;5028425;28;20024;-76
2022/05/26 10:52:27;;;;;;;8.93;2.17;;;20.10;99.90;;;;;;5023113;28;20125;-75
2022/05/26 10:55:07;;;;;;;15.18;2.70;;;20.10;99.90;;;;;;5020334;28;20030;-76
2022/05/26 10:57:38;;;;;;;10.05;2.42;;;19.90;99.90;;;;;;5034553;28;20028;-76
2022/05/26 11:00:17;;;;;;;14.77;2.47;;;19.90;99.90;;;;;;5048399;28;20052;-74
2022/05/26 11:03:09;;;;;;;12.85;2.75;;;19.90;99.90;;;;;;5033774;28;20030;-76
2022/05/26 11:05:44;;;;;;;11.38;2.53;;;19.90;99.90;;;;;;5033567;28;20048;-75
2022/05/26 11:08:34;;;;;;;11.35;2.58;;;19.90;99.90;;;;;;5040587;28;20539;-77
2022/05/26 11:11:10;;;;;;;21.42;2.50;;;19.90;99.90;;;;;;5037108;28;20072;-76
2022/05/26 11:14:05;;;;;;;12.68;2.15;;;20.00;99.90;;;;;;5036218;28;20040;-80
2022/05/26 11:20:02;;;;;;;12.50;2.08;;;20.00;99.90;;;;;;5046652;28;20056;-80
2022/05/26 11:22:28;;;;;;;9.27;1.92;;;20.00;99.90;;;;;;5038281;28;20026;-79
2022/05/26 11:24:57;;;;;;;8.50;2.08;;;19.90;99.90;;;;;;5046225;28;20568;-81
2022/05/26 11:27:34;;;;;;;10.85;2.17;;;20.00;99.90;;;;;;5044055;28;20040;-81
2022/05/26 11:36:07;;;;;;;11.00;1.90;;;20.10;99.90;;;;;;5042406;28;20026;-81
2022/05/26 11:38:31;;;;;;;16.77;2.53;;;20.40;99.90;;;;;;5042146;28;20036;-79
2022/05/26 11:41:00;;;;;;;11.45;2.15;;;20.50;99.90;;;;;;5034161;28;20127;-78
2022/05/26 11:43:29;;;;;;;9.80;1.88;;;20.60;99.90;;;;;;5034978;28;20030;-78
2022/05/26 11:45:57;;;;;;;11.82;2.45;;;20.60;99.90;;;;;;5035310;28;20025;-76
2022/05/26 11:48:32;;;;;;;10.32;2.08;;;20.50;99.90;;;;;;5051630;28;20028;-76
2022/05/26 11:51:02;;;;;;;8.10;1.85;;;20.40;99.90;;;;;;5041236;28;20056;-78
2022/05/26 11:53:27;;;;;;;6.93;1.55;;;20.50;99.90;;;;;;5042112;28;20044;-79
2022/05/26 11:55:55;;;;;;;12.20;1.60;;;20.70;99.90;;;;;;5031264;28;20018;-77
2022/05/26 11:59:12;;;;;;;8.95;1.60;;;20.80;99.90;;;;;;5037542;28;20397;-78
2022/05/26 12:01:38;;;;;;;;;;;21.00;98.20;;;;;;4997579;28;20132;-78
2022/05/26 12:04:23;;;;;;;11.38;1.63;;;20.80;98.60;;;;;;5001270;28;19921;-79
2022/05/26 12:06:55;;;;;;;11.10;1.70;;;20.60;97.90;;;;;;5014643;28;20095;-79
2022/05/26 12:09:37;;;;;;;9.02;1.52;;;20.50;98.30;;;;;;5017147;28;20045;-77
2022/05/26 12:12:08;;;;;;;8.45;1.77;;;20.60;98.00;;;;;;5017300;28;20045;-80
2022/05/26 12:14:45;;;;;;;10.43;1.70;;;20.50;98.40;;;;;;5019499;28;20033;-76
2022/05/26 12:17:26;;;;;;;7.40;1.50;;;20.50;99.00;;;;;;5010676;28;20057;-75
2022/05/26 12:19:52;;;;;;;13.38;4.78;;;20.50;98.60;;;;;;5017309;28;20033;-76
2022/05/26 12:22:21;;;;;;;60.08;34.00;;;20.40;98.40;;;;;;5019438;28;20084;-74
2022/05/26 12:24:50;;;;;;;6.30;1.77;;;20.40;98.90;;;;;;5018948;28;20108;-75
2022/05/26 12:27:54;;;;;;;4.75;0.93;;;20.30;97.00;;;;;;4998754;28;20061;-75
2022/05/26 12:30:45;;;;;;;8.25;1.17;;;20.40;94.60;;;;;;5004585;28;20143;-76
2022/05/26 12:33:41;;;;;;;5.72;1.23;;;20.30;94.30;;;;;;4988499;28;20077;-73
2022/05/26 12:36:26;;;;;;;7.25;0.93;;;20.40;94.00;;;;;;4989905;28;20057;-74
2022/05/26 12:39:14;;;;;;;4.95;1.13;;;20.20;93.50;;;;;;5017138;28;20087;-75
2022/05/26 12:41:51;;;;;;;6.55;1.20;;;20.20;94.20;;;;;;5028245;28;20063;-73
2022/05/26 12:44:35;;;;;;;9.40;1.50;;;20.10;94.80;;;;;;5026977;28;20041;-76
2022/05/26 12:47:22;;;;;;;9.48;1.55;;;20.10;95.10;;;;;;5019489;28;20038;-75
2022/05/26 12:50:09;;;;;;;12.00;1.60;;;20.10;95.90;;;;;;5020790;28;20104;-76
2022/05/26 12:52:43;;;;;;;12.48;2.08;;;20.20;96.10;;;;;;5013338;28;20497;-79
2022/05/26 12:55:32;;;;;;;9.25;1.55;;;20.10;96.70;;;;;;5031904;28;20087;-76
2022/05/26 12:58:22;;;;;;;7.47;1.60;;;20.10;97.10;;;;;;5025827;28;20044;-77
2022/05/26 13:00:56;;;;;;;10.05;3.60;;;20.10;96.70;;;;;;5022623;28;20053;-77
2022/05/26 13:03:27;;;;;;;9.90;2.58;;;20.20;97.10;;;;;;5032168;28;20022;-78
2022/05/26 13:06:10;;;;;;;9.13;2.60;;;20.20;96.00;;;;;;5020088;28;20367;-77
2022/05/26 13:08:53;;;;;;;7.90;1.45;;;20.20;96.20;;;;;;5018944;28;20034;-77
2022/05/26 13:11:33;;;;;;;9.30;1.83;;;20.10;96.90;;;;;;5041140;28;20017;-75
2022/05/26 13:14:02;;;;;;;8.32;1.95;;;20.10;97.70;;;;;;5027535;28;20031;-73
2022/05/26 13:16:33;;;;;;;12.05;2.25;;;20.20;98.40;;;;;;5028106;28;20131;-74
2022/05/26 13:19:15;;;;;;;7.97;2.00;;;20.10;96.60;;;;;;5025327;28;20052;-74
2022/05/26 13:21:44;;;;;;;11.25;1.80;;;20.00;97.50;;;;;;5033347;28;20104;-76
2022/05/26 13:24:16;;;;;;;5.82;1.50;;;19.90;98.20;;;;;;5036592;28;20018;-74
2022/05/26 13:26:43;;;;;;;7.68;1.95;;;20.00;97.80;;;;;;5021446;28;20057;-73
2022/05/26 13:29:10;;;;;;;15.23;6.47;;;20.00;97.50;;;;;;5019688;28;20030;-75
2022/05/26 13:34:28;;;;;;;10.13;1.80;;;20.10;97.90;;;;;;5024022;28;20032;-74
2022/05/26 13:36:54;;;;;;;11.02;1.63;;;20.10;98.20;;;;;;5016003;28;20392;-75
2022/05/26 13:39:23;;;;;;;8.35;1.92;;;20.30;98.00;;;;;;5019819;28;20038;-75
2022/05/26 13:41:51;;;;;;;9.57;1.75;;;20.40;97.00;;;;;;5021526;28;21549;-74
2022/05/26 13:44:30;;;;;;;8.90;1.63;;;20.40;96.20;;;;;;5024619;28;20365;-74